OISF  Fasa  Airport

Fasa, Iran

Add Bookmark
ICAO OISF
IATA FAZ
Type Airport
Status Operational
Latitude
28° 53' 30" N
28.891800
Longitude
53° 43' 23" E
53.723301
Local (DST + 5) UTC (GMT + 4)
Jul 6, 2015 11:46 Jul 6, 2015 07:16
Sunrise-Sunset Local UTC
Begin Civil Twilight 05:34 01:04
Sunrise 06:00 01:30
Sunset 07:58 15:28
End Civil Twilight 08:25 15:55
VFR
VFR
MVFR
MVFR
IFR
IFR
LIFR
LIFR
Unknown
Unavailable

Current Weather

METAR Observed VFR
OISF 050750Z 33010KT 9999 FEW040 40/02 Q1009 Sun, Jul 5, 2015 @ 07:50 UTC
(23 Hours, 26 Minutes ago)
Visual Flight Rules
Wind Visibility Clouds Conditions
330° at 10 knots (19 kph) 10 km or more
  • Few at 4,000 ft AGL
  • No significant weather
Temperatures Readings Precipitation
Current Temp
40°C
104°F
Dewpoint
2°C
36°F
Humidity 9%
Altimeter 29.79" Hg
Sea Level Pressure 1,009 mb
Field Elevation
1,383 m
4,537 ft
None Recorded
-
-

CheckWX.com is intended as a tool to help pilots better visualize weather data. It is not intended as a substitute for an official weather briefing obtained from a Flight Service Station. CheckWX.com does not meet the FAA requirements for an official pre-flight weather briefing. Therefore, it's important that pilots still call and obtain an official FSS pre-flight weather briefing.

© 2007-2015 CheckWX.com
07:16:00 UTC